sensor_id;sensor_type;location;lat;lon;timestamp;temperature;humidity
43627;DHT22;29217;52.586;13.442;2023-04-03T00:01:24;1.10;99.90
43627;DHT22;29217;52.586;13.442;2023-04-03T00:03:50;1.00;99.90
43627;DHT22;29217;52.586;13.442;2023-04-03T00:06:17;1.00;99.90
43627;DHT22;29217;52.586;13.442;2023-04-03T00:08:43;1.00;99.90
43627;DHT22;29217;52.586;13.442;2023-04-03T00:11:09;1.00;99.90
43627;DHT22;29217;52.586;13.442;2023-04-03T00:13:35;1.00;99.90
43627;DHT22;29217;52.586;13.442;2023-04-03T00:16:01;1.00;99.90
43627;DHT22;29217;52.586;13.442;2023-04-03T00:18:29;0.90;99.90
43627;DHT22;29217;52.586;13.442;2023-04-03T00:20:54;0.90;99.90
43627;DHT22;29217;52.586;13.442;2023-04-03T00:23:20;0.90;99.90
43627;DHT22;29217;52.586;13.442;2023-04-03T00:25:46;0.80;99.90
43627;DHT22;29217;52.586;13.442;2023-04-03T00:28:11;0.80;99.90
43627;DHT22;29217;52.586;13.442;2023-04-03T00:30:37;0.80;99.90
43627;DHT22;29217;52.586;13.442;2023-04-03T00:33:03;0.90;99.90
43627;DHT22;29217;52.586;13.442;2023-04-03T00:35:29;0.80;99.90
43627;DHT22;29217;52.586;13.442;2023-04-03T00:37:55;0.80;99.90
43627;DHT22;29217;52.586;13.442;2023-04-03T00:40:22;0.80;99.90
43627;DHT22;29217;52.586;13.442;2023-04-03T00:42:52;0.80;99.90
43627;DHT22;29217;52.586;13.442;2023-04-03T00:45:39;0.80;99.90
43627;DHT22;29217;52.586;13.442;2023-04-03T00:48:07;0.70;99.90
43627;DHT22;29217;52.586;13.442;2023-04-03T00:50:39;0.70;99.90
43627;DHT22;29217;52.586;13.442;2023-04-03T00:53:06;0.70;99.90
43627;DHT22;29217;52.586;13.442;2023-04-03T00:55:35;0.70;99.90
43627;DHT22;29217;52.586;13.442;2023-04-03T00:58:02;0.70;99.90
43627;DHT22;29217;52.586;13.442;2023-04-03T01:00:28;0.70;99.90
43627;DHT22;29217;52.586;13.442;2023-04-03T01:02:53;0.60;99.90
43627;DHT22;29217;52.586;13.442;2023-04-03T01:05:20;0.60;99.90
43627;DHT22;29217;52.586;13.442;2023-04-03T01:07:47;0.60;99.90
43627;DHT22;29217;52.586;13.442;2023-04-03T01:10:16;0.60;99.90
43627;DHT22;29217;52.586;13.442;2023-04-03T01:12:44;0.50;99.90
43627;DHT22;29217;52.586;13.442;2023-04-03T01:15:16;0.50;99.90
43627;DHT22;29217;52.586;13.442;2023-04-03T01:17:46;0.60;99.90
43627;DHT22;29217;52.586;13.442;2023-04-03T01:25:27;0.50;99.90
43627;DHT22;29217;52.586;13.442;2023-04-03T01:27:53;0.40;99.90
43627;DHT22;29217;52.586;13.442;2023-04-03T01:30:20;0.40;99.90
43627;DHT22;29217;52.586;13.442;2023-04-03T01:32:46;0.40;99.90
43627;DHT22;29217;52.586;13.442;2023-04-03T01:35:12;0.30;99.90
43627;DHT22;29217;52.586;13.442;2023-04-03T01:37:38;0.30;99.90
43627;DHT22;29217;52.586;13.442;2023-04-03T01:40:04;0.30;99.90
43627;DHT22;29217;52.586;13.442;2023-04-03T01:42:32;0.20;99.90
43627;DHT22;29217;52.586;13.442;2023-04-03T01:44:57;0.20;99.90
43627;DHT22;29217;52.586;13.442;2023-04-03T01:47:23;0.10;99.90
43627;DHT22;29217;52.586;13.442;2023-04-03T01:49:49;0.20;99.90
43627;DHT22;29217;52.586;13.442;2023-04-03T01:52:14;0.20;99.90
43627;DHT22;29217;52.586;13.442;2023-04-03T01:54:40;0.20;99.90
43627;DHT22;29217;52.586;13.442;2023-04-03T01:57:05;0.20;99.90
43627;DHT22;29217;52.586;13.442;2023-04-03T01:59:31;0.20;99.90
43627;DHT22;29217;52.586;13.442;2023-04-03T02:01:57;0.10;99.90
43627;DHT22;29217;52.586;13.442;2023-04-03T02:04:22;0.10;99.90
43627;DHT22;29217;52.586;13.442;2023-04-03T02:06:48;0.00;99.90
43627;DHT22;29217;52.586;13.442;2023-04-03T02:09:13;0.10;99.90
43627;DHT22;29217;52.586;13.442;2023-04-03T02:11:39;0.10;99.90
43627;DHT22;29217;52.586;13.442;2023-04-03T02:14:05;0.10;99.90
43627;DHT22;29217;52.586;13.442;2023-04-03T02:16:31;0.10;99.90
43627;DHT22;29217;52.586;13.442;2023-04-03T02:18:57;0.10;99.90
43627;DHT22;29217;52.586;13.442;2023-04-03T02:21:23;0.10;99.90
43627;DHT22;29217;52.586;13.442;2023-04-03T02:23:49;0.00;99.90
43627;DHT22;29217;52.586;13.442;2023-04-03T02:26:16;0.10;99.90
43627;DHT22;29217;52.586;13.442;2023-04-03T02:28:42;0.10;99.90
43627;DHT22;29217;52.586;13.442;2023-04-03T02:31:09;0.10;99.90
43627;DHT22;29217;52.586;13.442;2023-04-03T02:33:36;0.10;99.90
43627;DHT22;29217;52.586;13.442;2023-04-03T02:36:04;0.00;99.90
43627;DHT22;29217;52.586;13.442;2023-04-03T02:38:30;-0.10;99.90
43627;DHT22;29217;52.586;13.442;2023-04-03T02:41:03;0.00;99.90
43627;DHT22;29217;52.586;13.442;2023-04-03T02:43:29;-0.10;99.90
43627;DHT22;29217;52.586;13.442;2023-04-03T02:45:55;0.00;99.90
43627;DHT22;29217;52.586;13.442;2023-04-03T02:48:20;-0.20;99.90
43627;DHT22;29217;52.586;13.442;2023-04-03T02:50:46;-0.10;99.90
43627;DHT22;29217;52.586;13.442;2023-04-03T02:53:11;-0.10;99.90
43627;DHT22;29217;52.586;13.442;2023-04-03T02:55:37;-0.20;99.90
43627;DHT22;29217;52.586;13.442;2023-04-03T02:58:02;-0.10;99.90
43627;DHT22;29217;52.586;13.442;2023-04-03T03:00:29;-0.20;99.90
43627;DHT22;29217;52.586;13.442;2023-04-03T03:02:54;-0.20;99.90
43627;DHT22;29217;52.586;13.442;2023-04-03T03:05:20;-0.20;99.90
43627;DHT22;29217;52.586;13.442;2023-04-03T03:07:46;-0.20;99.90
43627;DHT22;29217;52.586;13.442;2023-04-03T03:10:11;-0.30;99.90
43627;DHT22;29217;52.586;13.442;2023-04-03T03:12:37;-0.30;99.90
43627;DHT22;29217;52.586;13.442;2023-04-03T03:15:02;-0.30;99.90
43627;DHT22;29217;52.586;13.442;2023-04-03T03:17:28;-0.30;99.90
43627;DHT22;29217;52.586;13.442;2023-04-03T03:19:54;-0.30;99.90
43627;DHT22;29217;52.586;13.442;2023-04-03T03:22:20;-0.30;99.90
43627;DHT22;29217;52.586;13.442;2023-04-03T03:24:45;-0.40;99.90
43627;DHT22;29217;52.586;13.442;2023-04-03T03:27:11;-0.40;99.90
43627;DHT22;29217;52.586;13.442;2023-04-03T03:29:37;-0.50;99.90
43627;DHT22;29217;52.586;13.442;2023-04-03T03:32:03;-0.60;99.90
43627;DHT22;29217;52.586;13.442;2023-04-03T03:34:29;-0.50;99.90
43627;DHT22;29217;52.586;13.442;2023-04-03T03:36:54;-0.50;99.90
43627;DHT22;29217;52.586;13.442;2023-04-03T03:39:20;-0.60;99.90
43627;DHT22;29217;52.586;13.442;2023-04-03T03:41:46;-0.60;99.90
43627;DHT22;29217;52.586;13.442;2023-04-03T03:44:12;-0.60;99.90
43627;DHT22;29217;52.586;13.442;2023-04-03T03:46:38;-0.50;99.90
43627;DHT22;29217;52.586;13.442;2023-04-03T03:49:03;-0.70;99.90
43627;DHT22;29217;52.586;13.442;2023-04-03T03:51:29;-0.60;99.90
43627;DHT22;29217;52.586;13.442;2023-04-03T03:53:55;-0.60;99.90
43627;DHT22;29217;52.586;13.442;2023-04-03T03:56:21;-0.70;99.90
43627;DHT22;29217;52.586;13.442;2023-04-03T03:58:46;-0.60;99.90
43627;DHT22;29217;52.586;13.442;2023-04-03T04:01:12;-0.60;99.90
43627;DHT22;29217;52.586;13.442;2023-04-03T04:03:37;-0.60;99.90
43627;DHT22;29217;52.586;13.442;2023-04-03T04:06:03;-0.60;99.90
43627;DHT22;29217;52.586;13.442;2023-04-03T04:08:29;-0.60;99.90
43627;DHT22;29217;52.586;13.442;2023-04-03T04:10:55;-0.70;99.90
43627;DHT22;29217;52.586;13.442;2023-04-03T04:13:21;-0.70;99.90
43627;DHT22;29217;52.586;13.442;2023-04-03T04:15:46;-0.70;99.90
43627;DHT22;29217;52.586;13.442;2023-04-03T04:18:12;-0.70;99.90
43627;DHT22;29217;52.586;13.442;2023-04-03T04:20:37;-0.60;99.90
43627;DHT22;29217;52.586;13.442;2023-04-03T04:23:03;-0.60;99.90
43627;DHT22;29217;52.586;13.442;2023-04-03T04:25:28;-0.70;99.90
43627;DHT22;29217;52.586;13.442;2023-04-03T04:27:54;-0.70;99.90
43627;DHT22;29217;52.586;13.442;2023-04-03T04:30:19;-0.70;99.90
43627;DHT22;29217;52.586;13.442;2023-04-03T04:32:45;-0.70;99.90
43627;DHT22;29217;52.586;13.442;2023-04-03T04:35:11;-0.70;99.90
43627;DHT22;29217;52.586;13.442;2023-04-03T04:37:36;-0.80;99.90
43627;DHT22;29217;52.586;13.442;2023-04-03T04:40:02;-0.70;99.90
43627;DHT22;29217;52.586;13.442;2023-04-03T04:42:28;-0.80;99.90
43627;DHT22;29217;52.586;13.442;2023-04-03T04:44:53;-0.80;99.90
43627;DHT22;29217;52.586;13.442;2023-04-03T04:47:19;-0.80;99.90
43627;DHT22;29217;52.586;13.442;2023-04-03T04:49:45;-0.80;99.90
43627;DHT22;29217;52.586;13.442;2023-04-03T04:52:12;-0.80;99.90
43627;DHT22;29217;52.586;13.442;2023-04-03T04:54:38;-0.80;99.90
43627;DHT22;29217;52.586;13.442;2023-04-03T04:57:04;-0.90;99.90
43627;DHT22;29217;52.586;13.442;2023-04-03T04:59:29;-0.80;99.90
43627;DHT22;29217;52.586;13.442;2023-04-03T05:01:55;-0.80;99.90
43627;DHT22;29217;52.586;13.442;2023-04-03T05:04:21;-0.90;99.90
43627;DHT22;29217;52.586;13.442;2023-04-03T05:06:46;-0.90;99.90
43627;DHT22;29217;52.586;13.442;2023-04-03T05:09:12;-0.90;99.90
43627;DHT22;29217;52.586;13.442;2023-04-03T05:11:38;-0.80;99.90
43627;DHT22;29217;52.586;13.442;2023-04-03T05:14:03;-0.70;99.90
43627;DHT22;29217;52.586;13.442;2023-04-03T05:16:32;-0.70;99.90
43627;DHT22;29217;52.586;13.442;2023-04-03T05:18:57;-0.70;99.90
43627;DHT22;29217;52.586;13.442;2023-04-03T05:21:23;-0.60;99.90
43627;DHT22;29217;52.586;13.442;2023-04-03T05:23:51;-0.60;99.90
43627;DHT22;29217;52.586;13.442;2023-04-03T05:26:17;-0.50;99.90
43627;DHT22;29217;52.586;13.442;2023-04-03T05:28:42;-0.40;99.90
43627;DHT22;29217;52.586;13.442;2023-04-03T05:31:08;-0.30;99.90
43627;DHT22;29217;52.586;13.442;2023-04-03T05:33:34;-0.20;99.90
43627;DHT22;29217;52.586;13.442;2023-04-03T05:36:06;-0.10;99.90
43627;DHT22;29217;52.586;13.442;2023-04-03T05:38:32;-0.10;99.90
43627;DHT22;29217;52.586;13.442;2023-04-03T05:40:58;0.00;99.90
43627;DHT22;29217;52.586;13.442;2023-04-03T05:43:23;0.10;99.90
43627;DHT22;29217;52.586;13.442;2023-04-03T05:45:50;0.10;99.90
43627;DHT22;29217;52.586;13.442;2023-04-03T05:48:16;0.20;99.90
43627;DHT22;29217;52.586;13.442;2023-04-03T05:50:42;0.20;99.90
43627;DHT22;29217;52.586;13.442;2023-04-03T05:53:14;0.30;99.90
43627;DHT22;29217;52.586;13.442;2023-04-03T05:55:40;0.30;99.90
43627;DHT22;29217;52.586;13.442;2023-04-03T05:58:06;0.40;99.90
43627;DHT22;29217;52.586;13.442;2023-04-03T06:00:31;0.50;99.90
43627;DHT22;29217;52.586;13.442;2023-04-03T06:02:57;0.60;99.90
43627;DHT22;29217;52.586;13.442;2023-04-03T06:05:23;0.70;99.90
43627;DHT22;29217;52.586;13.442;2023-04-03T06:07:49;0.80;99.90
43627;DHT22;29217;52.586;13.442;2023-04-03T06:10:15;0.90;99.90
43627;DHT22;29217;52.586;13.442;2023-04-03T06:12:40;1.10;99.90
43627;DHT22;29217;52.586;13.442;2023-04-03T06:15:07;1.20;99.90
43627;DHT22;29217;52.586;13.442;2023-04-03T06:17:35;1.30;99.90
43627;DHT22;29217;52.586;13.442;2023-04-03T06:20:01;1.50;99.90
43627;DHT22;29217;52.586;13.442;2023-04-03T06:22:28;1.50;99.90
43627;DHT22;29217;52.586;13.442;2023-04-03T06:24:55;1.60;99.90
43627;DHT22;29217;52.586;13.442;2023-04-03T06:27:21;1.70;99.90
43627;DHT22;29217;52.586;13.442;2023-04-03T06:29:47;1.80;99.90
43627;DHT22;29217;52.586;13.442;2023-04-03T06:32:14;1.80;99.90
43627;DHT22;29217;52.586;13.442;2023-04-03T06:34:40;2.00;99.90
43627;DHT22;29217;52.586;13.442;2023-04-03T06:37:05;2.10;99.90
43627;DHT22;29217;52.586;13.442;2023-04-03T06:39:31;2.30;99.90
43627;DHT22;29217;52.586;13.442;2023-04-03T06:41:57;2.40;99.90
43627;DHT22;29217;52.586;13.442;2023-04-03T06:44:23;2.50;99.90
43627;DHT22;29217;52.586;13.442;2023-04-03T06:46:49;2.60;99.90
43627;DHT22;29217;52.586;13.442;2023-04-03T06:49:14;2.70;99.90
43627;DHT22;29217;52.586;13.442;2023-04-03T06:51:40;2.90;99.90
43627;DHT22;29217;52.586;13.442;2023-04-03T06:54:06;3.00;99.90
43627;DHT22;29217;52.586;13.442;2023-04-03T06:56:33;3.00;99.90
43627;DHT22;29217;52.586;13.442;2023-04-03T06:58:59;3.10;99.90
43627;DHT22;29217;52.586;13.442;2023-04-03T07:01:27;3.20;99.90
43627;DHT22;29217;52.586;13.442;2023-04-03T07:03:54;3.40;99.90
43627;DHT22;29217;52.586;13.442;2023-04-03T07:06:21;3.50;99.90
43627;DHT22;29217;52.586;13.442;2023-04-03T07:08:47;3.60;99.90
43627;DHT22;29217;52.586;13.442;2023-04-03T07:11:14;3.60;99.90
43627;DHT22;29217;52.586;13.442;2023-04-03T07:13:40;3.60;99.90
43627;DHT22;29217;52.586;13.442;2023-04-03T07:16:07;3.50;99.90
43627;DHT22;29217;52.586;13.442;2023-04-03T07:18:33;3.60;99.90
43627;DHT22;29217;52.586;13.442;2023-04-03T07:20:59;3.50;99.90
43627;DHT22;29217;52.586;13.442;2023-04-03T07:23:25;3.40;99.90
43627;DHT22;29217;52.586;13.442;2023-04-03T07:25:51;3.50;99.90
43627;DHT22;29217;52.586;13.442;2023-04-03T07:28:19;3.40;99.90
43627;DHT22;29217;52.586;13.442;2023-04-03T07:31:11;3.50;99.90
43627;DHT22;29217;52.586;13.442;2023-04-03T07:33:39;3.70;99.90
43627;DHT22;29217;52.586;13.442;2023-04-03T07:36:06;3.80;99.90
43627;DHT22;29217;52.586;13.442;2023-04-03T07:38:33;3.90;99.90
43627;DHT22;29217;52.586;13.442;2023-04-03T07:40:58;4.10;99.90
43627;DHT22;29217;52.586;13.442;2023-04-03T07:43:24;4.10;99.90
43627;DHT22;29217;52.586;13.442;2023-04-03T07:45:51;4.10;99.90
43627;DHT22;29217;52.586;13.442;2023-04-03T07:48:19;4.00;99.90
43627;DHT22;29217;52.586;13.442;2023-04-03T07:50:45;3.80;99.90
43627;DHT22;29217;52.586;13.442;2023-04-03T07:53:10;3.70;99.90
43627;DHT22;29217;52.586;13.442;2023-04-03T07:55:36;3.50;99.90
43627;DHT22;29217;52.586;13.442;2023-04-03T07:58:09;3.50;99.90
43627;DHT22;29217;52.586;13.442;2023-04-03T08:00:35;3.70;99.90
43627;DHT22;29217;52.586;13.442;2023-04-03T08:03:01;3.80;99.90
43627;DHT22;29217;52.586;13.442;2023-04-03T08:05:27;3.80;99.90
43627;DHT22;29217;52.586;13.442;2023-04-03T08:07:53;4.00;99.90
43627;DHT22;29217;52.586;13.442;2023-04-03T08:10:18;4.20;99.90
43627;DHT22;29217;52.586;13.442;2023-04-03T08:12:46;4.40;99.90
43627;DHT22;29217;52.586;13.442;2023-04-03T08:15:12;4.50;99.90
43627;DHT22;29217;52.586;13.442;2023-04-03T08:17:38;4.50;99.90
43627;DHT22;29217;52.586;13.442;2023-04-03T08:20:07;4.30;99.90
43627;DHT22;29217;52.586;13.442;2023-04-03T08:22:33;4.20;99.90
43627;DHT22;29217;52.586;13.442;2023-04-03T08:24:59;4.00;99.90
43627;DHT22;29217;52.586;13.442;2023-04-03T08:27:26;3.90;99.90
43627;DHT22;29217;52.586;13.442;2023-04-03T08:29:52;3.90;99.90
43627;DHT22;29217;52.586;13.442;2023-04-03T08:32:17;3.90;99.90
43627;DHT22;29217;52.586;13.442;2023-04-03T08:34:44;4.00;99.90
43627;DHT22;29217;52.586;13.442;2023-04-03T08:37:10;4.20;99.90
43627;DHT22;29217;52.586;13.442;2023-04-03T08:39:36;4.50;99.90
43627;DHT22;29217;52.586;13.442;2023-04-03T08:42:10;4.70;99.90
43627;DHT22;29217;52.586;13.442;2023-04-03T08:44:59;4.80;99.90
43627;DHT22;29217;52.586;13.442;2023-04-03T08:47:46;4.70;99.90
43627;DHT22;29217;52.586;13.442;2023-04-03T08:50:16;4.70;99.90
43627;DHT22;29217;52.586;13.442;2023-04-03T08:52:48;4.90;99.90
43627;DHT22;29217;52.586;13.442;2023-04-03T08:55:34;4.90;99.90
43627;DHT22;29217;52.586;13.442;2023-04-03T08:58:06;4.80;99.90
43627;DHT22;29217;52.586;13.442;2023-04-03T09:03:15;4.40;99.90
43627;DHT22;29217;52.586;13.442;2023-04-03T09:08:28;4.20;99.90
43627;DHT22;29217;52.586;13.442;2023-04-03T09:25:08;3.90;99.90
43627;DHT22;29217;52.586;13.442;2023-04-03T09:27:35;3.90;99.90
43627;DHT22;29217;52.586;13.442;2023-04-03T09:30:02;4.10;99.90
43627;DHT22;29217;52.586;13.442;2023-04-03T09:32:31;4.10;99.90
43627;DHT22;29217;52.586;13.442;2023-04-03T09:37:40;4.10;99.90
43627;DHT22;29217;52.586;13.442;2023-04-03T09:40:31;4.20;99.90
43627;DHT22;29217;52.586;13.442;2023-04-03T09:43:02;4.20;99.90
43627;DHT22;29217;52.586;13.442;2023-04-03T09:45:31;4.30;99.90
43627;DHT22;29217;52.586;13.442;2023-04-03T09:50:32;4.40;99.90
43627;DHT22;29217;52.586;13.442;2023-04-03T09:52:59;4.50;99.90
43627;DHT22;29217;52.586;13.442;2023-04-03T09:55:29;4.60;99.90
43627;DHT22;29217;52.586;13.442;2023-04-03T09:58:00;4.80;99.90
43627;DHT22;29217;52.586;13.442;2023-04-03T10:00:34;4.90;99.90
43627;DHT22;29217;52.586;13.442;2023-04-03T10:03:02;5.10;99.90
43627;DHT22;29217;52.586;13.442;2023-04-03T10:08:30;5.20;99.90
43627;DHT22;29217;52.586;13.442;2023-04-03T10:11:25;5.30;99.90
43627;DHT22;29217;52.586;13.442;2023-04-03T10:13:59;5.30;99.90
43627;DHT22;29217;52.586;13.442;2023-04-03T10:16:41;5.40;99.90
43627;DHT22;29217;52.586;13.442;2023-04-03T10:19:21;5.50;99.90
43627;DHT22;29217;52.586;13.442;2023-04-03T10:34:47;5.50;99.90
43627;DHT22;29217;52.586;13.442;2023-04-03T10:37:30;5.60;99.90
43627;DHT22;29217;52.586;13.442;2023-04-03T10:43:17;5.70;99.90
43627;DHT22;29217;52.586;13.442;2023-04-03T10:45:52;5.60;99.90
43627;DHT22;29217;52.586;13.442;2023-04-03T10:56:48;5.70;99.90
43627;DHT22;29217;52.586;13.442;2023-04-03T10:59:28;5.70;99.90
43627;DHT22;29217;52.586;13.442;2023-04-03T11:02:06;5.70;99.90
43627;DHT22;29217;52.586;13.442;2023-04-03T11:04:36;5.50;99.90
43627;DHT22;29217;52.586;13.442;2023-04-03T11:07:19;5.50;99.90
43627;DHT22;29217;52.586;13.442;2023-04-03T11:09:48;5.60;99.90
43627;DHT22;29217;52.586;13.442;2023-04-03T11:14:51;5.60;99.90
43627;DHT22;29217;52.586;13.442;2023-04-03T11:19:56;5.40;99.90
43627;DHT22;29217;52.586;13.442;2023-04-03T11:22:31;5.40;99.90
43627;DHT22;29217;52.586;13.442;2023-04-03T11:27:43;5.30;99.90
43627;DHT22;29217;52.586;13.442;2023-04-03T11:30:33;5.40;99.90
43627;DHT22;29217;52.586;13.442;2023-04-03T11:36:09;5.30;99.90
43627;DHT22;29217;52.586;13.442;2023-04-03T11:38:40;5.40;99.90
43627;DHT22;29217;52.586;13.442;2023-04-03T11:41:08;5.50;99.90
43627;DHT22;29217;52.586;13.442;2023-04-03T11:43:41;5.60;99.90
43627;DHT22;29217;52.586;13.442;2023-04-03T11:46:08;5.80;99.90
43627;DHT22;29217;52.586;13.442;2023-04-03T11:53:51;5.60;99.90
43627;DHT22;29217;52.586;13.442;2023-04-03T12:01:56;5.60;99.90
43627;DHT22;29217;52.586;13.442;2023-04-03T12:04:25;5.50;99.90
43627;DHT22;29217;52.586;13.442;2023-04-03T12:06:58;5.50;99.90
43627;DHT22;29217;52.586;13.442;2023-04-03T12:09:32;5.50;99.90
43627;DHT22;29217;52.586;13.442;2023-04-03T12:12:00;5.50;99.90
43627;DHT22;29217;52.586;13.442;2023-04-03T12:14:27;5.40;99.90
43627;DHT22;29217;52.586;13.442;2023-04-03T12:16:55;5.30;99.90
43627;DHT22;29217;52.586;13.442;2023-04-03T12:19:33;5.10;99.90
43627;DHT22;29217;52.586;13.442;2023-04-03T12:24:32;5.30;99.90
43627;DHT22;29217;52.586;13.442;2023-04-03T12:35:39;5.60;99.90
43627;DHT22;29217;52.586;13.442;2023-04-03T12:41:29;5.80;99.90
43627;DHT22;29217;52.586;13.442;2023-04-03T12:44:11;5.90;99.90
43627;DHT22;29217;52.586;13.442;2023-04-03T12:46:43;6.00;99.90
43627;DHT22;29217;52.586;13.442;2023-04-03T12:49:33;5.90;99.90
43627;DHT22;29217;52.586;13.442;2023-04-03T12:52:04;5.80;99.90
43627;DHT22;29217;52.586;13.442;2023-04-03T12:54:38;5.70;99.90
43627;DHT22;29217;52.586;13.442;2023-04-03T12:57:33;5.70;99.90
43627;DHT22;29217;52.586;13.442;2023-04-03T12:59:59;5.60;99.90
43627;DHT22;29217;52.586;13.442;2023-04-03T13:02:29;5.70;99.90
43627;DHT22;29217;52.586;13.442;2023-04-03T13:04:58;5.60;99.90
43627;DHT22;29217;52.586;13.442;2023-04-03T13:07:28;5.50;99.90
43627;DHT22;29217;52.586;13.442;2023-04-03T13:10:12;5.40;99.90
43627;DHT22;29217;52.586;13.442;2023-04-03T13:15:48;5.30;99.90
43627;DHT22;29217;52.586;13.442;2023-04-03T13:18:32;5.20;99.90
43627;DHT22;29217;52.586;13.442;2023-04-03T13:21:13;5.30;99.90
43627;DHT22;29217;52.586;13.442;2023-04-03T13:23:43;5.30;99.90
43627;DHT22;29217;52.586;13.442;2023-04-03T13:26:10;5.40;99.90
43627;DHT22;29217;52.586;13.442;2023-04-03T13:28:36;5.40;99.90
43627;DHT22;29217;52.586;13.442;2023-04-03T13:33:36;5.30;99.90
43627;DHT22;29217;52.586;13.442;2023-04-03T13:36:19;5.30;99.90
43627;DHT22;29217;52.586;13.442;2023-04-03T13:38:45;5.30;99.90
43627;DHT22;29217;52.586;13.442;2023-04-03T13:41:29;5.20;99.90
43627;DHT22;29217;52.586;13.442;2023-04-03T13:43:56;5.20;99.90
43627;DHT22;29217;52.586;13.442;2023-04-03T13:46:27;5.20;99.90
43627;DHT22;29217;52.586;13.442;2023-04-03T13:48:54;5.20;99.90
43627;DHT22;29217;52.586;13.442;2023-04-03T13:53:55;5.10;99.90
43627;DHT22;29217;52.586;13.442;2023-04-03T13:56:38;5.20;99.90
43627;DHT22;29217;52.586;13.442;2023-04-03T14:01:46;5.10;99.90
43627;DHT22;29217;52.586;13.442;2023-04-03T14:06:45;5.10;99.90
43627;DHT22;29217;52.586;13.442;2023-04-03T14:09:11;5.20;99.90
43627;DHT22;29217;52.586;13.442;2023-04-03T14:11:37;5.40;99.90
43627;DHT22;29217;52.586;13.442;2023-04-03T14:14:11;5.50;99.90
43627;DHT22;29217;52.586;13.442;2023-04-03T14:16:40;5.30;99.90
43627;DHT22;29217;52.586;13.442;2023-04-03T14:19:07;5.40;99.90
43627;DHT22;29217;52.586;13.442;2023-04-03T14:21:33;5.30;99.90
43627;DHT22;29217;52.586;13.442;2023-04-03T14:23:59;5.40;99.90
43627;DHT22;29217;52.586;13.442;2023-04-03T14:26:25;5.90;99.90
43627;DHT22;29217;52.586;13.442;2023-04-03T14:28:54;6.80;99.90
43627;DHT22;29217;52.586;13.442;2023-04-03T14:31:21;7.10;99.90
43627;DHT22;29217;52.586;13.442;2023-04-03T14:33:48;7.00;99.90
43627;DHT22;29217;52.586;13.442;2023-04-03T14:36:25;6.60;99.90
43627;DHT22;29217;52.586;13.442;2023-04-03T14:38:52;6.40;99.90
43627;DHT22;29217;52.586;13.442;2023-04-03T14:41:21;5.90;99.90
43627;DHT22;29217;52.586;13.442;2023-04-03T14:43:48;5.70;99.90
43627;DHT22;29217;52.586;13.442;2023-04-03T14:46:17;5.60;99.90
43627;DHT22;29217;52.586;13.442;2023-04-03T14:48:44;5.40;99.90
43627;DHT22;29217;52.586;13.442;2023-04-03T14:51:14;5.40;99.90
43627;DHT22;29217;52.586;13.442;2023-04-03T14:53:41;5.30;99.90
43627;DHT22;29217;52.586;13.442;2023-04-03T14:58:41;5.10;99.90
43627;DHT22;29217;52.586;13.442;2023-04-03T15:01:09;5.00;99.90
43627;DHT22;29217;52.586;13.442;2023-04-03T15:03:35;5.00;99.90
43627;DHT22;29217;52.586;13.442;2023-04-03T15:06:01;4.90;99.90
43627;DHT22;29217;52.586;13.442;2023-04-03T15:08:27;4.80;99.90
43627;DHT22;29217;52.586;13.442;2023-04-03T15:10:57;4.80;99.90
43627;DHT22;29217;52.586;13.442;2023-04-03T15:13:23;4.70;99.90
43627;DHT22;29217;52.586;13.442;2023-04-03T15:15:50;4.80;99.90
43627;DHT22;29217;52.586;13.442;2023-04-03T15:18:20;4.80;99.90
43627;DHT22;29217;52.586;13.442;2023-04-03T15:20:46;4.70;99.90
43627;DHT22;29217;52.586;13.442;2023-04-03T15:23:14;4.70;99.90
43627;DHT22;29217;52.586;13.442;2023-04-03T15:25:47;4.70;99.90
43627;DHT22;29217;52.586;13.442;2023-04-03T15:28:38;4.70;99.90
43627;DHT22;29217;52.586;13.442;2023-04-03T15:31:05;4.70;99.90
43627;DHT22;29217;52.586;13.442;2023-04-03T15:33:32;4.70;99.90
43627;DHT22;29217;52.586;13.442;2023-04-03T15:35:58;4.70;99.90
43627;DHT22;29217;52.586;13.442;2023-04-03T15:38:24;4.70;99.90
43627;DHT22;29217;52.586;13.442;2023-04-03T15:40:49;4.70;99.90
43627;DHT22;29217;52.586;13.442;2023-04-03T15:43:15;4.80;99.90
43627;DHT22;29217;52.586;13.442;2023-04-03T15:45:42;4.80;99.90
43627;DHT22;29217;52.586;13.442;2023-04-03T15:48:09;4.80;99.90
43627;DHT22;29217;52.586;13.442;2023-04-03T15:50:35;4.70;99.90
43627;DHT22;29217;52.586;13.442;2023-04-03T15:53:01;4.70;99.90
43627;DHT22;29217;52.586;13.442;2023-04-03T15:55:29;4.60;99.90
43627;DHT22;29217;52.586;13.442;2023-04-03T15:57:56;4.60;99.90
43627;DHT22;29217;52.586;13.442;2023-04-03T16:00:22;4.60;99.90
43627;DHT22;29217;52.586;13.442;2023-04-03T16:02:52;4.60;99.90
43627;DHT22;29217;52.586;13.442;2023-04-03T16:05:18;4.70;99.90
43627;DHT22;29217;52.586;13.442;2023-04-03T16:07:45;4.90;99.90
43627;DHT22;29217;52.586;13.442;2023-04-03T16:10:12;5.10;99.90
43627;DHT22;29217;52.586;13.442;2023-04-03T16:12:38;5.30;99.90
43627;DHT22;29217;52.586;13.442;2023-04-03T16:15:05;5.50;99.90
43627;DHT22;29217;52.586;13.442;2023-04-03T16:17:32;5.60;99.90
43627;DHT22;29217;52.586;13.442;2023-04-03T16:19:58;5.70;99.90
43627;DHT22;29217;52.586;13.442;2023-04-03T16:22:26;5.70;99.90
43627;DHT22;29217;52.586;13.442;2023-04-03T16:24:53;5.70;99.90
43627;DHT22;29217;52.586;13.442;2023-04-03T16:27:19;5.60;99.90
43627;DHT22;29217;52.586;13.442;2023-04-03T16:29:45;5.50;99.90
43627;DHT22;29217;52.586;13.442;2023-04-03T16:32:11;5.30;99.90
43627;DHT22;29217;52.586;13.442;2023-04-03T16:34:38;5.30;99.90
43627;DHT22;29217;52.586;13.442;2023-04-03T16:37:05;5.20;99.90
43627;DHT22;29217;52.586;13.442;2023-04-03T16:39:34;5.20;99.90
43627;DHT22;29217;52.586;13.442;2023-04-03T16:42:00;5.00;99.90
43627;DHT22;29217;52.586;13.442;2023-04-03T16:44:25;5.00;99.90
43627;DHT22;29217;52.586;13.442;2023-04-03T16:46:51;4.90;99.90
43627;DHT22;29217;52.586;13.442;2023-04-03T16:49:17;4.90;99.90
43627;DHT22;29217;52.586;13.442;2023-04-03T16:51:42;4.90;99.90
43627;DHT22;29217;52.586;13.442;2023-04-03T16:54:08;4.80;99.90
43627;DHT22;29217;52.586;13.442;2023-04-03T16:56:36;4.70;99.90
43627;DHT22;29217;52.586;13.442;2023-04-03T16:59:02;4.60;99.90
43627;DHT22;29217;52.586;13.442;2023-04-03T17:01:27;4.60;99.90
43627;DHT22;29217;52.586;13.442;2023-04-03T17:03:53;4.60;99.90
43627;DHT22;29217;52.586;13.442;2023-04-03T17:06:20;4.50;99.90
43627;DHT22;29217;52.586;13.442;2023-04-03T17:08:47;4.50;99.90
43627;DHT22;29217;52.586;13.442;2023-04-03T17:11:14;4.50;99.90
43627;DHT22;29217;52.586;13.442;2023-04-03T17:13:40;4.40;99.90
43627;DHT22;29217;52.586;13.442;2023-04-03T17:16:09;4.40;99.90
43627;DHT22;29217;52.586;13.442;2023-04-03T17:18:36;4.40;99.90
43627;DHT22;29217;52.586;13.442;2023-04-03T17:21:02;4.40;99.90
43627;DHT22;29217;52.586;13.442;2023-04-03T17:23:28;4.40;99.90